METAR Data
IDs: Format: Raw Decoded Include TAF

Data at: 1155 UTC 21 Sep 2018

KRZL 211135Z AUTO 23012G17KT 5SM +RA SCT033 BKN048 OVC050 23/17 A2990 RMK AO2 P0010 LTG DSNT SW